Time;durP1;ratioP1;P1;durP2;ratioP2;P2;SDS_P1;SDS_P2;PMS_P1;PMS_P2;Temp;Humidity;BMP_temperature;BMP_pressure;BME280_temperature;BME280_humidity;BME280_pressure;Samples;Min_cycle;Max_cycle;Signal;HPM_P1;HPM_P2
2022/04/19 00:00:10;;;;;;;21.35;12.15;;;;;;;11.19;52.08;101505.13;4835395;29;121005;-90
2022/04/19 00:02:36;;;;;;;23.40;13.60;;;;;;;11.14;52.26;101500.94;4815009;29;122096;-91
2022/04/19 00:05:03;;;;;;;21.85;12.77;;;;;;;10.95;52.88;101472.41;4832722;29;119644;-91
2022/04/19 00:07:28;;;;;;;21.13;13.45;;;;;;;10.93;52.41;101477.56;4836346;29;121097;-91
2022/04/19 00:09:54;;;;;;;23.83;12.70;;;;;;;10.65;52.50;101443.44;4847857;29;120291;-90
2022/04/19 00:12:20;;;;;;;23.92;12.90;;;;;;;10.85;52.66;101476.22;4824866;29;119555;-91
2022/04/19 00:14:47;;;;;;;22.55;12.93;;;;;;;10.62;52.67;101444.28;4838820;29;120797;-92
2022/04/19 00:17:13;;;;;;;20.95;13.00;;;;;;;10.87;52.99;101487.53;4845452;29;119307;-91
2022/04/19 00:19:39;;;;;;;20.73;12.63;;;;;;;10.77;52.64;101483.88;4841836;29;120927;-90
2022/04/19 00:22:08;;;;;;;19.63;12.15;;;;;;;10.44;52.52;101444.75;4832635;29;123057;-92
2022/04/19 00:24:34;;;;;;;23.30;13.32;;;;;;;10.72;52.65;101486.38;4818077;29;119381;-91
2022/04/19 00:26:59;;;;;;;22.60;13.00;;;;;;;10.74;52.85;101490.22;4831350;29;120934;-92
2022/04/19 00:29:28;;;;;;;22.13;12.57;;;;;;;10.70;53.14;101488.78;4818576;29;121887;-90
2022/04/19 00:31:53;;;;;;;22.45;12.15;;;;;;;10.58;52.61;101470.25;4848856;29;119928;-91
2022/04/19 00:34:22;;;;;;;20.40;11.93;;;;;;;10.65;52.45;101481.06;4818729;29;121286;-91
2022/04/19 00:36:47;;;;;;;22.25;13.57;;;;;;;10.63;52.98;101489.72;4836915;29;121833;-91
2022/04/19 00:39:16;;;;;;;20.20;12.32;;;;;;;10.09;52.65;101420.91;4832264;29;119364;-91
2022/04/19 00:41:41;;;;;;;20.92;13.00;;;;;;;10.47;52.41;101475.25;4815164;29;121606;-91
2022/04/19 05:39:53;;;;;;;48.53;26.98;;;;;;;10.56;60.09;101426.03;4871274;28;118975;-92
2022/04/19 05:42:18;;;;;;;45.22;26.45;;;;;;;11.08;60.48;101495.19;4828239;29;119204;-92
2022/04/19 05:44:47;;;;;;;50.17;27.00;;;;;;;11.24;59.74;101499.09;4832404;29;120994;-90
2022/04/19 05:50:46;;;;;;;46.25;26.23;;;;;;;11.23;58.63;101445.38;4893114;23;119227;-90
2022/04/19 05:53:11;;;;;;;44.72;26.27;;;;;;;11.39;58.14;101450.81;4853505;28;120727;-91
2022/04/19 05:55:37;;;;;;;39.47;23.70;;;;;;;11.77;56.95;101492.06;4852535;28;122651;-92
2022/04/19 05:58:03;;;;;;;40.08;24.15;;;;;;;11.62;56.60;101456.00;4836970;28;119527;-90
2022/04/19 06:00:29;;;;;;;41.85;24.05;;;;;;;11.99;55.69;101490.22;4849875;29;119291;-91
2022/04/19 06:05:41;;;;;;;37.83;23.05;;;;;;;12.11;54.98;101482.44;4833700;29;120899;-92
2022/04/19 06:08:08;;;;;;;37.83;22.40;;;;;;;12.15;55.07;101472.06;4833126;29;121620;-92
2022/04/19 06:10:35;;;;;;;34.70;20.77;;;;;;;12.31;54.08;101485.72;4847946;29;118877;-92
2022/04/19 06:13:01;;;;;;;34.05;21.17;;;;;;;12.39;54.09;101494.50;4832715;29;119599;-93
2022/04/19 06:15:28;;;;;;;36.40;21.58;;;;;;;12.28;53.24;101465.31;4816768;29;121908;-93
2022/04/19 06:17:54;;;;;;;35.47;21.45;;;;;;;12.45;53.89;101485.22;4831774;29;118439;-92
2022/04/19 06:21:12;;;;;;;40.03;23.17;;;;;;;12.62;53.79;101494.13;4818726;29;121181;-92
2022/04/19 06:23:46;;;;;;;44.05;22.80;;;;;;;12.67;53.49;101498.28;4829085;29;120262;-91
2022/04/19 06:26:21;;;;;;;36.75;21.80;;;;;;;12.73;53.68;101499.25;4815057;29;119251;-92
2022/04/19 06:36:22;;;;;;;38.35;21.77;;;;;;;12.82;54.10;101486.34;4756797;29;120398;-92
2022/04/19 06:38:58;;;;;;;38.05;22.88;;;;;;;12.86;53.29;101498.00;4831667;23;120407;-91
2022/04/19 06:41:41;;;;;;;39.60;22.00;;;;;;;12.74;53.65;101476.00;4829068;28;119305;-91
2022/04/19 06:44:17;;;;;;;34.55;21.48;;;;;;;13.02;53.33;101510.06;4862233;28;119672;-91
2022/04/19 06:47:13;;;;;;;38.60;21.50;;;;;;;12.62;52.88;101430.81;4839961;28;122650;-93
2022/04/19 06:49:57;;;;;;;33.58;20.23;;;;;;;13.05;53.60;101478.88;4814111;29;120474;-93
2022/04/19 06:52:34;;;;;;;34.33;20.67;;;;;;;13.16;52.60;101491.03;4828682;29;119725;-94
2022/04/19 06:55:43;;;;;;;33.70;19.77;;;;;;;13.17;52.76;101472.53;4838317;28;119347;-91
2022/04/19 06:58:23;;;;;;;34.38;19.67;;;;;;;13.46;52.70;101510.84;4806548;29;121450;-91
2022/04/19 07:00:52;;;;;;;31.80;19.17;;;;;;;13.26;52.93;101464.38;4823501;29;122256;-94
2022/04/19 07:03:30;;;;;;;35.42;20.08;;;;;;;13.64;52.07;101510.97;4825520;29;119138;-95
2022/04/19 07:06:33;;;;;;;31.60;17.45;;;;;;;13.74;51.45;101503.53;4836754;28;119538;-92
2022/04/19 07:09:05;;;;;;;31.52;17.90;;;;;;;13.65;50.47;101484.16;4811851;28;121972;-91
2022/04/19 07:11:36;;;;;;;28.77;17.08;;;;;;;13.92;50.57;101509.09;4838548;29;118809;-93
2022/04/19 07:14:19;;;;;;;26.15;16.65;;;;;;;13.70;50.13;101469.78;4832545;28;120354;-91
2022/04/19 07:17:15;;;;;;;27.35;17.30;;;;;;;13.75;50.25;101460.94;4839462;28;119337;-91
2022/04/19 07:28:21;;;;;;;28.52;17.83;;;;;;;14.33;50.70;101518.16;4808697;29;122295;-93
2022/04/19 07:33:53;;;;;;;30.23;16.73;;;;;;;14.37;50.81;101524.28;4823130;29;118496;-94
2022/04/19 07:36:32;;;;;;;26.70;16.65;;;;;;;14.31;50.23;101513.09;4835967;29;120385;-92
2022/04/19 07:39:19;;;;;;;30.27;17.52;;;;;;;14.01;50.42;101455.97;4814036;29;123818;-94
2022/04/19 07:41:49;;;;;;;26.55;17.02;;;;;;;14.53;50.49;101532.34;4825636;28;119237;-93
2022/04/19 07:44:33;;;;;;;27.23;16.17;;;;;;;14.18;50.12;101464.75;4811230;29;121916;-93
2022/04/19 07:47:02;;;;;;;30.70;16.85;;;;;;;14.73;49.90;101531.91;4821691;29;118948;-94
2022/04/19 07:49:37;;;;;;;27.50;15.93;;;;;;;14.86;50.71;101529.00;4817032;29;121509;-93
2022/04/19 07:52:14;;;;;;;27.27;15.43;;;;;;;14.69;49.68;101489.88;4809826;29;121718;-93
2022/04/19 07:54:58;;;;;;;27.73;15.75;;;;;;;15.11;49.10;101534.22;4828712;28;118542;-94
2022/04/19 07:57:57;;;;;;;27.48;15.00;;;;;;;15.18;48.48;101531.16;4806929;29;120861;-93
2022/04/19 08:04:51;;;;;;;31.58;16.58;;;;;;;15.34;47.40;101544.66;4809449;29;118582;-93
2022/04/19 08:14:42;;;;;;;33.95;16.63;;;;;;;15.50;46.24;101545.56;4804540;29;119113;-93
2022/04/19 08:21:27;;;;;;;32.17;15.98;;;;;;;15.17;46.18;101482.66;4802350;29;119290;-93
2022/04/19 08:24:22;;;;;;;31.48;15.85;;;;;;;15.54;45.96;101546.94;4804277;29;122085;-92
2022/04/19 08:27:04;;;;;;;28.08;14.93;;;;;;;15.55;46.18;101544.94;4804568;29;123698;-92
2022/04/19 08:38:16;;;;;;;24.73;13.27;;;;;;;15.61;45.89;101507.94;4771003;29;119466;-92
2022/04/19 08:40:49;;;;;;;22.27;12.15;;;;;;;15.67;44.29;101502.53;4764826;29;121735;-92
2022/04/19 08:43:26;;;;;;;19.35;10.07;;;;;;;15.96;43.52;101541.47;4779824;29;120049;-93
2022/04/19 08:46:03;;;;;;;19.65;10.13;;;;;;;15.98;41.61;101535.47;4763061;29;119645;-93
2022/04/19 08:48:38;;;;;;;21.40;10.35;;;;;;;15.75;41.20;101500.97;4782104;29;120810;-93
2022/04/19 08:51:28;;;;;;;22.25;10.90;;;;;;;16.17;43.15;101533.41;4781256;29;120511;-93
2022/04/19 09:00:46;;;;;;;15.73;8.65;;;;;;;16.27;40.02;101543.19;4873539;23;119625;-92
2022/04/19 09:28:38;;;;;;;11.30;5.53;;;;;;;16.43;37.45;101467.28;4837090;29;119248;-92
2022/04/19 09:31:36;;;;;;;12.75;5.78;;;;;;;16.89;38.94;101542.53;4794692;29;120161;-92
2022/04/19 09:35:01;;;;;;;11.63;6.20;;;;;;;16.67;37.88;101487.44;4787619;29;119271;-92
2022/04/19 09:38:01;;;;;;;11.93;6.80;;;;;;;16.63;37.54;101481.28;4793458;29;120812;-93
2022/04/19 09:40:55;;;;;;;12.82;6.60;;;;;;;16.96;38.67;101516.47;4810020;29;123630;-92
2022/04/19 09:43:29;;;;;;;15.13;8.68;;;;;;;17.24;38.94;101547.47;4825367;29;119521;-92
2022/04/19 09:46:05;;;;;;;13.55;8.57;;;;;;;17.15;38.99;101509.53;4804510;29;120708;-92
2022/04/19 09:48:41;;;;;;;14.65;9.25;;;;;;;17.08;38.77;101487.72;4802548;29;120948;-94
2022/04/19 09:51:09;;;;;;;13.55;8.40;;;;;;;17.36;37.59;101524.28;4836442;29;118609;-92
2022/04/19 09:53:52;;;;;;;14.10;8.52;;;;;;;17.41;39.12;101535.47;4825450;29;121765;-93
2022/04/19 09:56:33;;;;;;;18.13;10.63;;;;;;;17.46;37.84;101540.34;4802721;29;118609;-95
2022/04/19 09:59:02;;;;;;;19.58;10.23;;;;;;;17.21;37.54;101498.53;4808375;29;121300;-93
2022/04/19 10:10:02;;;;;;;21.00;10.98;;;;;;;17.18;36.80;101497.47;4836749;28;120660;-93
2022/04/19 10:12:44;;;;;;;17.98;10.75;;;;;;;17.44;37.29;101534.50;4839833;28;120796;-93
2022/04/19 10:15:14;;;;;;;20.73;10.25;;;;;;;17.43;38.58;101532.19;4813943;29;121095;-93
2022/04/19 10:17:56;;;;;;;18.45;10.90;;;;;;;17.44;38.09;101536.50;4794821;29;119128;-93
2022/04/19 10:21:12;;;;;;;;;;;;;;;;;;;;;
2022/04/19 10:24:43;;;;;;;21.50;11.45;;;;;;;17.01;37.81;101477.75;4783683;29;119723;-92
2022/04/19 10:27:38;;;;;;;19.55;11.05;;;;;;;17.35;38.23;101517.97;4840860;28;119198;-93
2022/04/19 10:30:29;;;;;;;21.70;11.15;;;;;;;16.96;38.66;101459.03;4803876;29;120051;-92
2022/04/19 10:33:34;;;;;;;20.10;11.77;;;;;;;17.25;38.06;101502.63;4825974;29;123103;-92
2022/04/19 10:37:21;;;;;;;20.77;11.52;;;;;;;17.35;37.41;101517.19;4826070;28;118679;-94
2022/04/19 11:29:22;;;;;;;20.10;11.20;;;;;;;17.25;33.09;101474.91;4865002;28;119677;-91
2022/04/19 11:31:53;;;;;;;22.63;12.50;;;;;;;17.65;32.51;101546.47;4862700;28;119433;-92
2022/04/19 11:34:27;;;;;;;23.20;13.57;;;;;;;17.46;32.76;101509.06;4857064;28;121950;-94
2022/04/19 11:48:00;;;;;;;;;;;;;;;;;;;;;
2022/04/19 11:52:04;;;;;;;24.55;14.18;;;;;;;17.77;33.44;101536.38;4869608;28;118900;-91
2022/04/19 11:55:08;;;;;;;21.60;12.50;;;;;;;17.38;34.01;101469.09;4856519;28;122178;-89
2022/04/19 11:57:43;;;;;;;25.65;13.85;;;;;;;17.43;34.63;101473.97;4874163;28;119213;-90
2022/04/19 12:00:10;;;;;;;20.90;12.13;;;;;;;17.64;35.04;101497.00;4841629;28;122408;-89
2022/04/19 12:02:37;;;;;;;21.98;12.35;;;;;;;17.81;35.17;101511.97;4842112;29;119893;-91
2022/04/19 12:05:06;;;;;;;24.00;13.43;;;;;;;17.61;35.37;101484.88;4824658;28;120940;-92
2022/04/19 12:07:32;;;;;;;25.92;14.63;;;;;;;17.74;34.95;101504.78;4864543;28;120429;-90
2022/04/19 12:09:58;;;;;;;24.95;14.25;;;;;;;17.69;35.45;101499.91;4840408;29;118678;-93
2022/04/19 12:12:24;;;;;;;22.48;13.63;;;;;;;17.95;35.11;101529.81;4867036;28;119623;-94
2022/04/19 12:15:03;;;;;;;24.00;13.98;;;;;;;17.72;35.78;101490.59;4846805;28;120620;-92
2022/04/19 12:17:30;;;;;;;22.90;13.20;;;;;;;17.88;35.28;101516.34;4856145;28;118606;-94
2022/04/19 12:20:04;;;;;;;22.90;12.75;;;;;;;17.95;34.05;101529.81;4869754;28;120521;-92
2022/04/19 12:30:51;;;;;;;20.67;10.48;;;;;;;17.54;32.41;101492.81;4851938;28;118732;-92
2022/04/19 12:34:30;;;;;;;16.70;10.13;;;;;;;17.87;31.56;101540.56;4839785;29;119317;-91
2022/04/19 13:12:56;;;;;;;8.50;5.40;;;;;;;17.78;31.08;101521.25;4762010;29;120978;-94
2022/04/19 13:15:44;;;;;;;8.43;5.25;;;;;;;17.77;29.97;101509.38;4744295;29;120106;-93
2022/04/19 13:23:32;;;;;;;9.50;5.38;;;;;;;17.81;31.89;101505.63;4778769;29;121014;-91
2022/04/19 13:26:16;;;;;;;9.45;6.00;;;;;;;17.83;31.73;101508.69;4775919;29;118770;-94
2022/04/19 13:46:52;;;;;;;11.20;6.75;;;;;;;17.65;32.16;101507.63;4817011;28;121915;-94
2022/04/19 13:50:02;;;;;;;12.63;7.45;;;;;;;17.38;32.88;101467.09;4794432;28;121262;-92
2022/04/19 13:52:48;;;;;;;10.95;7.07;;;;;;;17.74;33.24;101506.78;4857851;28;119548;-95
2022/04/19 14:04:11;;;;;;;9.98;5.40;;;;;;;17.65;33.57;101510.41;4857225;28;120773;-94
2022/04/19 14:08:03;;;;;;;8.18;4.80;;;;;;;17.65;35.26;101506.84;4854660;28;119782;-94
2022/04/19 14:10:40;;;;;;;8.20;4.47;;;;;;;17.68;36.04;101512.25;4855325;28;119742;-94
2022/04/19 14:13:39;;;;;;;9.80;6.47;;;;;;;17.73;36.67;101514.34;4836063;28;119735;-94
2022/04/19 14:19:26;;;;;;;3.92;2.55;;;;;;;17.38;36.04;101467.09;4858502;28;121061;-93
2022/04/19 14:22:04;;;;;;;4.25;2.90;;;;;;;17.73;36.26;101511.56;4834976;28;119551;-94
2022/04/19 14:24:54;;;;;;;7.90;4.13;;;;;;;17.74;37.20;101515.09;4853375;28;120277;-92
2022/04/19 14:27:46;;;;;;;;;;;;;;;;;;;;;
2022/04/19 14:33:38;;;;;;;8.15;5.20;;;;;;;17.65;37.00;101518.72;4864260;28;122641;-93
2022/04/19 14:39:18;;;;;;;11.32;6.70;;;;;;;17.61;37.75;101523.69;4855735;28;119662;-93
2022/04/19 14:42:12;;;;;;;10.48;6.70;;;;;;;17.61;37.87;101518.16;4840901;28;121786;-94
2022/04/19 14:48:07;;;;;;;8.55;5.10;;;;;;;17.54;37.80;101528.88;4845891;28;120422;-94
2022/04/19 14:53:50;;;;;;;7.13;4.97;;;;;;;17.21;38.31;101485.44;4858291;28;118658;-93
2022/04/19 14:56:44;;;;;;;6.90;5.15;;;;;;;17.21;37.82;101495.75;4843256;28;123163;-93
2022/04/19 14:59:28;;;;;;;7.40;4.82;;;;;;;17.24;38.16;101512.19;4828616;28;119136;-92
2022/04/19 15:02:11;;;;;;;8.70;4.68;;;;;;;17.15;37.89;101507.50;4856878;28;122167;-94
2022/04/19 15:04:48;;;;;;;6.20;4.50;;;;;;;17.24;37.46;101516.97;4819490;28;121668;-94
2022/04/19 15:07:21;;;;;;;7.63;4.70;;;;;;;17.39;38.01;101534.41;4845838;28;119900;-94
2022/04/19 15:09:56;;;;;;;6.95;4.68;;;;;;;17.40;38.74;101538.72;4850699;28;121807;-93
2022/04/19 15:16:50;;;;;;;9.30;5.72;;;;;;;17.30;38.64;101521.41;4871633;23;120117;-85
2022/04/19 15:19:16;;;;;;;8.52;5.75;;;;;;;17.21;38.30;101518.69;4851500;28;122319;-83
2022/04/19 15:21:45;;;;;;;6.53;4.53;;;;;;;17.21;37.91;101518.69;4848790;28;120601;-83
2022/04/19 15:24:11;;;;;;;6.82;4.53;;;;;;;17.28;37.82;101528.66;4819424;28;122434;-85
2022/04/19 15:26:39;;;;;;;7.55;5.30;;;;;;;17.13;38.48;101506.47;4833084;28;123345;-85
2022/04/19 15:29:06;;;;;;;8.05;5.25;;;;;;;17.30;38.82;101528.97;4828387;28;119598;-85
2022/04/19 15:31:34;;;;;;;6.65;5.57;;;;;;;17.28;38.80;101534.22;4824849;28;122325;-86
2022/04/19 15:34:00;;;;;;;9.35;5.75;;;;;;;17.33;39.04;101536.31;4819604;29;123087;-85
2022/04/19 15:36:26;;;;;;;7.28;6.05;;;;;;;17.24;39.07;101528.84;4834260;28;119846;-85
2022/04/19 15:38:52;;;;;;;9.25;6.45;;;;;;;17.18;39.65;101514.13;4820061;29;119838;-85
2022/04/19 15:41:17;;;;;;;7.65;5.53;;;;;;;17.16;39.83;101511.06;4840740;28;120166;-85
2022/04/19 15:43:43;;;;;;;12.27;6.40;;;;;;;17.14;39.87;101508.75;4820137;28;122173;-85
2022/04/19 15:46:08;;;;;;;14.27;8.27;;;;;;;17.27;38.95;101532.66;4819143;29;123397;-85
2022/04/19 15:48:37;;;;;;;9.55;8.18;;;;;;;17.08;38.76;101513.44;4823381;29;119704;-87
2022/04/19 15:51:03;;;;;;;12.48;8.23;;;;;;;17.06;39.32;101504.06;4835648;28;120815;-86
2022/04/19 15:53:28;;;;;;;13.48;8.35;;;;;;;17.15;39.46;101524.16;4819400;29;123684;-86
2022/04/19 15:55:54;;;;;;;10.70;8.00;;;;;;;17.00;39.61;101515.03;4829959;28;121491;-86
2022/04/19 15:58:20;;;;;;;12.60;8.38;;;;;;;17.02;38.99;101511.78;4819822;28;122221;-86
2022/04/19 16:00:48;;;;;;;11.23;8.55;;;;;;;16.98;38.65;101517.50;4835370;28;120081;-86
2022/04/19 16:03:16;;;;;;;13.77;9.05;;;;;;;16.93;38.63;101509.88;4819086;29;119793;-85
2022/04/19 16:05:41;;;;;;;12.15;8.95;;;;;;;16.96;38.65;101519.22;4821898;28;123491;-86
2022/04/19 16:08:07;;;;;;;14.55;8.90;;;;;;;16.93;38.79;101523.72;4818937;29;120259;-86
2022/04/19 16:10:34;;;;;;;10.52;8.05;;;;;;;16.68;37.55;101502.06;4820401;28;123495;-85
2022/04/19 16:12:59;;;;;;;11.70;8.38;;;;;;;16.79;38.06;101518.88;4811555;28;123496;-85
2022/04/19 16:15:26;;;;;;;11.45;8.20;;;;;;;16.71;37.60;101517.72;4830504;28;119651;-86
2022/04/19 16:23:21;;;;;;;;;;;;;;;16.65;37.90;101538.97;4831714;28;119532;-86
2022/04/19 16:25:57;;;;;;;11.55;8.57;;;;;;;16.64;37.57;101543.00;4846390;28;122429;-87
2022/04/19 16:28:35;;;;;;;12.60;9.00;;;;;;;16.54;37.35;101534.72;4819044;28;120184;-87
2022/04/19 16:31:03;;;;;;;10.25;8.55;;;;;;;16.49;37.84;101532.59;4815292;28;122611;-86
2022/04/19 16:33:29;;;;;;;11.98;8.10;;;;;;;16.54;37.46;101536.72;4794197;28;122927;-84
2022/04/19 16:35:57;;;;;;;11.55;8.40;;;;;;;16.50;37.71;101545.22;4832045;28;119579;-87
2022/04/19 16:38:24;;;;;;;12.70;8.73;;;;;;;16.21;37.11;101509.09;4816096;28;120267;-85
2022/04/19 16:40:50;;;;;;;11.52;8.13;;;;;;;15.95;37.15;101479.06;4814296;28;123663;-87
2022/04/19 16:43:16;;;;;;;10.02;6.97;;;;;;;16.18;36.47;101532.94;4816009;28;119996;-86
2022/04/19 16:45:43;;;;;;;8.32;7.18;;;;;;;16.31;36.89;101548.53;4832530;28;122858;-85
2022/04/19 16:48:10;;;;;;;9.75;6.25;;;;;;;16.28;35.40;101551.03;4803034;28;124038;-84
2022/04/19 16:50:36;;;;;;;8.52;5.75;;;;;;;16.13;36.45;101541.13;4815765;28;123125;-85
2022/04/19 16:53:08;;;;;;;8.80;5.63;;;;;;;16.22;36.08;101555.66;4833020;28;124130;-86
2022/04/19 16:55:35;;;;;;;7.68;5.00;;;;;;;16.17;35.69;101544.47;4831333;28;120022;-86
2022/04/19 16:58:07;;;;;;;7.53;5.38;;;;;;;16.09;37.28;101541.28;4832273;28;120042;-85
2022/04/19 17:00:33;;;;;;;7.50;4.85;;;;;;;16.16;36.64;101556.78;4830774;28;120535;-87
2022/04/19 17:05:49;;;;;;;7.22;5.68;;;;;;;16.06;35.26;101555.28;4794257;28;122113;-86
2022/04/19 17:08:15;;;;;;;8.70;5.85;;;;;;;16.03;35.76;101558.97;4833886;28;122554;-87
2022/04/19 17:10:41;;;;;;;8.85;6.40;;;;;;;16.04;36.68;101560.50;4799969;28;121630;-86
2022/04/19 17:13:07;;;;;;;13.48;6.45;;;;;;;15.98;36.09;101551.31;4828385;28;120078;-85
2022/04/19 17:15:33;;;;;;;7.45;5.88;;;;;;;15.95;36.29;101551.00;4832338;28;120090;-88
2022/04/19 17:17:59;;;;;;;7.15;6.10;;;;;;;15.94;36.81;101566.09;4815453;28;119843;-88
2022/04/19 17:20:25;;;;;;;9.43;7.13;;;;;;;15.90;36.15;101554.41;4799261;28;122509;-87
2022/04/19 17:22:50;;;;;;;10.93;6.65;;;;;;;15.86;36.81;101556.59;4830134;28;119824;-87
2022/04/19 17:25:16;;;;;;;9.77;6.97;;;;;;;15.77;37.12;101545.53;4816038;28;122395;-87
2022/04/19 17:27:43;;;;;;;10.07;6.93;;;;;;;15.85;36.24;101563.34;4829702;28;119836;-87
2022/04/19 17:30:09;;;;;;;11.70;6.53;;;;;;;15.78;36.47;101560.88;4804093;28;121370;-86
2022/04/19 17:32:36;;;;;;;10.30;6.40;;;;;;;15.59;36.51;101545.56;4814832;28;120416;-84
2022/04/19 17:35:06;;;;;;;9.60;6.20;;;;;;;15.76;36.72;101574.44;4830170;28;119629;-86
2022/04/19 17:37:32;;;;;;;9.68;6.90;;;;;;;15.60;36.51;101556.16;4831501;28;121361;-88
2022/04/19 17:39:58;;;;;;;8.63;5.72;;;;;;;15.61;36.87;101560.50;4814018;28;120144;-86
2022/04/19 17:42:24;;;;;;;7.07;5.15;;;;;;;15.52;36.51;101563.22;4800108;28;120195;-88
2022/04/19 17:44:50;;;;;;;8.02;5.57;;;;;;;15.52;35.59;101557.69;4831884;28;120410;-86
2022/04/19 17:47:16;;;;;;;8.43;5.65;;;;;;;15.45;36.09;101562.78;4816513;28;120220;-85
2022/04/19 17:57:57;;;;;;;9.65;5.78;;;;;;;15.34;37.27;101583.34;4812709;28;122100;-85
2022/04/19 18:00:23;;;;;;;10.30;6.00;;;;;;;15.24;37.67;101579.06;4832641;28;120475;-86
2022/04/19 18:02:48;;;;;;;11.40;5.93;;;;;;;15.27;36.86;101591.97;4832830;28;120657;-86
2022/04/19 18:05:15;;;;;;;11.35;6.63;;;;;;;15.13;37.99;101575.22;4815104;28;122728;-87
2022/04/19 18:07:44;;;;;;;11.40;6.72;;;;;;;15.25;37.41;101599.19;4801647;28;123364;-84
2022/04/19 18:10:10;;;;;;;8.68;6.03;;;;;;;15.11;38.46;101589.50;4822400;28;120011;-86
2022/04/19 18:12:36;;;;;;;7.93;5.38;;;;;;;15.17;39.47;101604.25;4873965;23;119653;-86
2022/04/19 18:15:05;;;;;;;10.82;5.32;;;;;;;15.08;40.35;101595.16;4843451;28;123725;-87
2022/04/19 18:17:33;;;;;;;9.15;5.30;;;;;;;15.03;39.20;101608.38;4831267;28;119675;-86
2022/04/19 18:20:03;;;;;;;8.18;4.65;;;;;;;14.99;39.77;101607.00;4836198;28;122967;-86
2022/04/19 18:25:13;;;;;;;5.65;4.05;;;;;;;14.84;39.92;101608.78;4837641;28;122458;-86
2022/04/19 18:27:41;;;;;;;7.18;4.45;;;;;;;14.82;40.10;101622.28;4802743;29;122827;-87
2022/04/19 18:30:11;;;;;;;8.02;4.30;;;;;;;14.63;40.25;101602.91;4837324;28;119464;-86
2022/04/19 18:32:39;;;;;;;7.82;4.63;;;;;;;14.57;41.13;101609.50;4823834;28;122293;-86
2022/04/19 18:35:06;;;;;;;7.95;4.63;;;;;;;14.63;41.39;101636.03;4816423;29;120047;-86
2022/04/19 18:37:33;;;;;;;8.30;4.78;;;;;;;14.55;42.08;101637.56;4837796;28;120569;-86
2022/04/19 18:40:03;;;;;;;9.10;5.50;;;;;;;14.43;42.36;101628.19;4831149;28;123091;-86
2022/04/19 18:42:28;;;;;;;9.13;5.63;;;;;;;14.33;43.04;101631.31;4829740;28;120381;-86
2022/04/19 18:44:55;;;;;;;12.07;7.50;;;;;;;14.34;43.06;101644.66;4844839;28;119654;-87
2022/04/19 18:47:20;;;;;;;11.63;8.00;;;;;;;14.25;42.90;101635.56;4827739;28;120054;-87
2022/04/19 18:49:46;;;;;;;11.55;8.73;;;;;;;14.17;43.63;101645.31;4844025;28;119879;-84
2022/04/19 18:52:12;;;;;;;10.45;7.82;;;;;;;14.13;44.02;101650.97;4831174;28;121666;-85
2022/04/19 18:54:38;;;;;;;9.25;6.20;;;;;;;14.07;44.21;101648.03;4832762;28;122941;-86
2022/04/19 18:57:05;;;;;;;10.82;5.95;;;;;;;13.88;43.55;101640.84;4800177;28;119800;-87
2022/04/19 18:59:30;;;;;;;8.13;5.60;;;;;;;13.93;43.85;101654.06;4836982;28;119815;-87
2022/04/19 19:01:56;;;;;;;11.23;5.38;;;;;;;13.82;43.22;101646.19;4830922;28;120163;-86
2022/04/19 19:04:23;;;;;;;9.60;4.82;;;;;;;13.78;43.31;101645.56;4835626;28;119979;-87
2022/04/19 19:06:48;;;;;;;7.97;5.20;;;;;;;13.82;43.11;101659.97;4833939;28;122701;-86
2022/04/19 19:09:15;;;;;;;8.70;5.43;;;;;;;13.83;42.86;101669.03;4831112;28;121410;-86
2022/04/19 19:11:42;;;;;;;9.32;5.43;;;;;;;13.50;43.30;101625.28;4834944;28;122958;-86
2022/04/19 19:14:10;;;;;;;8.57;4.90;;;;;;;13.62;42.68;101654.00;4846844;28;119951;-86
2022/04/19 19:16:36;;;;;;;8.60;5.25;;;;;;;13.63;43.51;101660.28;4818876;28;120586;-86
2022/04/19 19:19:03;;;;;;;7.28;4.82;;;;;;;13.71;43.83;101681.63;4844080;28;121949;-85
2022/04/19 19:21:30;;;;;;;9.60;5.22;;;;;;;13.63;43.42;101668.56;4839542;28;120445;-85
2022/04/19 19:24:00;;;;;;;9.18;4.85;;;;;;;13.65;42.96;101683.44;4833173;28;121789;-86
2022/04/19 19:26:34;;;;;;;6.95;4.85;;;;;;;13.61;43.44;101677.28;4818174;28;122981;-86
2022/04/19 19:29:03;;;;;;;8.32;5.15;;;;;;;13.63;44.30;101690.59;4811824;28;120441;-85
2022/04/19 19:31:29;;;;;;;11.52;5.90;;;;;;;13.48;44.37;101671.78;4828829;28;120122;-88
2022/04/19 19:33:57;;;;;;;9.85;5.22;;;;;;;13.53;44.22;101687.03;4831384;28;123145;-86
2022/04/19 19:36:30;;;;;;;10.75;5.63;;;;;;;13.49;42.98;101680.88;4802807;28;119848;-86
2022/04/19 19:39:03;;;;;;;8.98;5.60;;;;;;;13.52;43.00;101685.47;4830161;28;122646;-86
2022/04/19 19:41:29;;;;;;;12.65;6.63;;;;;;;13.49;43.19;101684.38;4834712;28;123321;-84
2022/04/19 19:43:55;;;;;;;9.23;5.68;;;;;;;13.11;43.61;101631.34;4828811;28;122259;-87
2022/04/19 19:46:21;;;;;;;10.77;6.18;;;;;;;13.33;43.82;101670.75;4831444;28;119942;-87
2022/04/19 19:48:47;;;;;;;9.20;6.07;;;;;;;13.36;44.18;101672.63;4815382;28;119890;-87
2022/04/19 19:51:13;;;;;;;9.55;5.88;;;;;;;13.44;43.72;101695.19;4831275;28;123177;-87
2022/04/19 19:53:39;;;;;;;10.10;6.43;;;;;;;13.32;43.29;101679.47;4815442;28;123522;-87
2022/04/19 19:56:06;;;;;;;8.50;5.88;;;;;;;13.23;43.58;101676.59;4831066;28;120059;-88
2022/04/19 19:58:33;;;;;;;10.00;5.97;;;;;;;13.20;43.72;101672.75;4831877;28;120029;-86
2022/04/19 20:00:59;;;;;;;10.98;6.10;;;;;;;13.15;44.46;101676.81;4829497;28;124334;-86
2022/04/19 20:03:24;;;;;;;11.65;6.20;;;;;;;13.14;45.66;101678.03;4835065;28;119549;-86
2022/04/19 20:05:50;;;;;;;9.95;5.22;;;;;;;13.11;45.08;101689.19;4830512;28;119811;-85
2022/04/19 20:08:18;;;;;;;10.60;5.55;;;;;;;13.00;43.86;101678.50;4833439;28;121592;-87
2022/04/19 20:10:44;;;;;;;9.55;5.43;;;;;;;12.95;44.71;101683.78;4831461;28;122616;-87
2022/04/19 20:13:10;;;;;;;8.13;5.93;;;;;;;12.86;45.18;101676.97;4830588;28;121736;-87
2022/04/19 20:15:36;;;;;;;8.65;6.05;;;;;;;12.83;45.79;101688.09;4830229;28;119532;-85
2022/04/19 20:18:02;;;;;;;7.22;5.05;;;;;;;12.79;45.59;101693.72;4816175;28;120585;-86
2022/04/19 20:20:27;;;;;;;9.60;6.00;;;;;;;12.74;45.79;101699.00;4845295;28;119826;-86
2022/04/19 20:22:53;;;;;;;8.30;5.68;;;;;;;12.68;45.92;101704.28;4847321;28;120055;-84
2022/04/19 20:25:19;;;;;;;10.35;6.10;;;;;;;12.62;46.10;101703.28;4834673;28;121888;-85
2022/04/19 20:27:44;;;;;;;7.68;5.60;;;;;;;12.51;46.40;101702.81;4814354;28;121106;-86
2022/04/19 20:30:10;;;;;;;9.48;5.88;;;;;;;12.51;46.62;101713.84;4830533;28;123222;-86
2022/04/19 20:32:36;;;;;;;10.43;5.63;;;;;;;12.45;46.71;101710.09;4826013;28;122545;-85
2022/04/19 20:35:02;;;;;;;8.32;5.43;;;;;;;12.40;46.37;101714.16;4845136;28;120448;-86
2022/04/19 20:37:29;;;;;;;9.93;5.70;;;;;;;12.34;46.68;101710.41;4831525;28;121870;-86
2022/04/19 20:39:54;;;;;;;10.57;5.75;;;;;;;12.29;47.35;101719.97;4846920;28;120042;-86
2022/04/19 20:42:20;;;;;;;7.75;6.38;;;;;;;12.19;47.83;101709.28;4799394;28;119901;-84
2022/04/19 20:44:46;;;;;;;11.50;5.90;;;;;;;12.14;47.71;101710.59;4832079;28;119562;-86
2022/04/19 20:50:11;;;;;;;10.40;6.15;;;;;;;12.04;47.71;101719.88;4831752;28;119525;-85
2022/04/19 20:52:42;;;;;;;9.18;6.30;;;;;;;12.00;48.06;101713.72;4829863;28;120446;-84
2022/04/19 20:55:09;;;;;;;10.40;6.30;;;;;;;11.90;48.18;101712.06;4833212;28;120302;-85
2022/04/19 20:57:36;;;;;;;10.02;5.97;;;;;;;11.94;47.76;101719.00;4814912;28;122444;-86
2022/04/19 21:00:07;;;;;;;10.07;6.13;;;;;;;11.85;48.47;101718.84;4811539;28;120084;-86
2022/04/19 21:02:32;;;;;;;10.40;5.65;;;;;;;11.76;47.45;101702.16;4846703;28;120218;-86
2022/04/19 21:05:02;;;;;;;11.60;5.70;;;;;;;11.84;47.84;101727.53;4813969;28;121591;-86
2022/04/19 21:07:28;;;;;;;10.27;5.47;;;;;;;11.69;48.22;101710.59;4814887;28;119976;-86